Time;durP1;ratioP1;P1;durP2;ratioP2;P2;SDS_P1;SDS_P2;PMS_P1;PMS_P2;Temp;Humidity;BMP_temperature;BMP_pressure;BME280_temperature;BME280_humidity;BME280_pressure;Samples;Min_cycle;Max_cycle;Signal;HPM_P1;HPM_P2
2022/05/15 00:02:39;;;;;;;20.63;8.80;;;9.80;99.90;;;;;;5009585;28;20053;-76
2022/05/15 00:05:05;;;;;;;19.15;7.95;;;9.70;99.90;;;;;;5007755;28;20048;-75
2022/05/15 00:07:31;;;;;;;29.25;8.73;;;9.70;99.90;;;;;;5009007;28;20088;-76
2022/05/15 00:09:57;;;;;;;15.70;6.55;;;9.60;99.90;;;;;;5008472;28;20042;-76
2022/05/15 00:12:22;;;;;;;19.83;8.70;;;9.70;99.90;;;;;;5008078;28;20050;-76
2022/05/15 00:14:48;;;;;;;27.70;9.20;;;9.60;99.90;;;;;;4992343;28;20045;-77
2022/05/15 00:17:15;;;;;;;22.30;8.38;;;9.60;99.90;;;;;;5009831;28;20049;-76
2022/05/15 00:19:41;;;;;;;21.58;7.40;;;9.60;99.90;;;;;;5007515;28;20103;-76
2022/05/15 00:22:09;;;;;;;15.30;6.88;;;9.70;99.90;;;;;;5009471;28;20176;-76
2022/05/15 00:24:36;;;;;;;20.25;8.05;;;9.50;99.90;;;;;;5009740;28;20064;-76
2022/05/15 00:27:02;;;;;;;35.10;8.98;;;9.50;99.90;;;;;;4991705;28;20057;-77
2022/05/15 00:29:29;;;;;;;18.75;6.60;;;9.70;99.90;;;;;;5008186;28;20184;-75
2022/05/15 00:31:54;;;;;;;18.95;7.18;;;9.60;99.90;;;;;;5009307;28;20089;-76
2022/05/15 00:34:20;;;;;;;20.45;9.20;;;9.60;99.90;;;;;;5007283;28;20515;-75
2022/05/15 00:36:46;;;;;;;23.92;7.53;;;9.50;99.90;;;;;;5009592;28;20559;-75
2022/05/15 00:39:12;;;;;;;21.92;7.60;;;9.40;99.90;;;;;;5008249;28;20053;-75
2022/05/15 00:41:39;;;;;;;23.00;8.57;;;9.50;99.90;;;;;;5008734;28;20181;-76
2022/05/15 00:44:06;;;;;;;25.83;9.25;;;9.60;99.90;;;;;;5008990;28;20054;-76
2022/05/15 00:46:36;;;;;;;15.35;6.93;;;9.70;99.90;;;;;;5009286;28;20398;-76
2022/05/15 00:49:05;;;;;;;22.97;8.20;;;9.70;99.90;;;;;;5007718;28;20076;-76
2022/05/15 00:51:57;;;;;;;24.17;7.60;;;9.60;99.90;;;;;;5006829;28;20355;-75
2022/05/15 00:54:29;;;;;;;22.98;7.85;;;9.70;99.90;;;;;;5007363;28;20064;-76
2022/05/15 00:57:03;;;;;;;15.50;5.82;;;9.30;99.90;;;;;;5007407;28;20053;-77
2022/05/15 00:59:37;;;;;;;14.55;5.60;;;9.30;99.90;;;;;;5007568;28;20201;-76
2022/05/15 01:02:04;;;;;;;14.60;6.65;;;9.30;99.90;;;;;;5008622;28;20049;-75
2022/05/15 01:04:31;;;;;;;8.68;4.30;;;9.30;99.90;;;;;;4990487;28;20138;-76
2022/05/15 01:06:57;;;;;;;12.38;5.60;;;9.10;99.90;;;;;;5008528;28;20042;-76
2022/05/15 01:09:22;;;;;;;15.80;6.20;;;8.80;99.90;;;;;;5008268;28;20045;-75
2022/05/15 01:11:49;;;;;;;17.17;6.38;;;8.60;99.90;;;;;;4990934;28;20044;-76
2022/05/15 01:14:18;;;;;;;12.50;4.95;;;8.60;99.90;;;;;;5009076;28;20099;-76
2022/05/15 01:16:44;;;;;;;31.75;7.97;;;8.70;99.90;;;;;;5008659;28;20084;-76
2022/05/15 01:19:10;;;;;;;12.63;4.53;;;8.70;99.90;;;;;;5008088;28;20038;-75
2022/05/15 01:21:52;;;;;;;13.70;4.20;;;8.50;99.90;;;;;;5007776;28;20239;-76
2022/05/15 01:24:18;;;;;;;14.10;4.35;;;8.40;99.90;;;;;;5007135;28;20428;-76
2022/05/15 01:26:45;;;;;;;11.35;5.57;;;8.40;99.90;;;;;;5008505;28;20050;-76
2022/05/15 01:29:10;;;;;;;11.85;3.95;;;8.50;99.90;;;;;;5006690;28;20037;-76
2022/05/15 01:31:37;;;;;;;12.80;4.47;;;8.50;99.90;;;;;;5007673;28;20643;-76
2022/05/15 01:34:05;;;;;;;12.75;5.45;;;8.60;99.90;;;;;;5007974;28;20034;-75
2022/05/15 01:36:31;;;;;;;14.43;6.55;;;8.50;99.90;;;;;;5007423;28;20425;-77
2022/05/15 01:38:57;;;;;;;14.07;5.00;;;8.50;99.90;;;;;;5006584;28;20037;-76
2022/05/15 01:41:25;;;;;;;16.00;5.15;;;8.40;99.90;;;;;;5007994;28;20050;-76
2022/05/15 01:43:53;;;;;;;15.27;6.38;;;8.50;99.90;;;;;;5006751;28;20049;-76
2022/05/15 01:46:24;;;;;;;11.82;5.10;;;8.50;99.90;;;;;;4999235;23;20056;-77
2022/05/15 01:48:51;;;;;;;12.23;4.53;;;8.40;99.90;;;;;;5007964;28;20042;-77
2022/05/15 01:51:17;;;;;;;19.08;7.30;;;8.30;99.90;;;;;;5007649;28;20057;-77
2022/05/15 01:53:43;;;;;;;13.70;6.75;;;8.50;99.90;;;;;;5007178;28;20045;-77
2022/05/15 01:56:10;;;;;;;19.95;7.35;;;8.70;99.90;;;;;;4989803;28;20463;-76
2022/05/15 01:58:36;;;;;;;17.55;6.30;;;8.50;99.90;;;;;;4990502;28;20550;-76
2022/05/15 02:01:01;;;;;;;16.73;7.45;;;8.60;99.90;;;;;;5006293;28;20085;-76
2022/05/15 02:03:27;;;;;;;23.65;6.90;;;8.70;99.90;;;;;;5006401;28;20483;-76
2022/05/15 02:05:53;;;;;;;15.40;6.47;;;8.50;99.90;;;;;;5006849;28;20457;-76
2022/05/15 02:08:18;;;;;;;19.60;7.60;;;8.40;99.90;;;;;;5006270;28;20050;-75
2022/05/15 02:10:45;;;;;;;20.77;6.50;;;8.50;99.90;;;;;;5008058;28;20173;-76
2022/05/15 02:13:11;;;;;;;21.75;7.35;;;8.60;99.90;;;;;;5007467;28;20058;-76
2022/05/15 02:15:37;;;;;;;20.00;6.00;;;8.60;99.90;;;;;;5006149;28;20533;-76
2022/05/15 02:18:04;;;;;;;18.30;6.90;;;8.50;99.90;;;;;;5005983;28;20459;-76
2022/05/15 02:20:30;;;;;;;18.38;7.45;;;8.50;99.90;;;;;;5004866;28;20298;-77
2022/05/15 02:22:56;;;;;;;12.75;5.80;;;8.60;99.90;;;;;;5007689;28;20049;-76
2022/05/15 02:25:21;;;;;;;16.33;7.00;;;8.60;99.90;;;;;;5007316;28;20048;-76
2022/05/15 02:27:48;;;;;;;23.25;8.00;;;8.40;99.90;;;;;;5005749;28;20137;-76
2022/05/15 02:30:15;;;;;;;17.13;6.75;;;8.40;99.90;;;;;;5007348;28;20041;-76
2022/05/15 02:32:41;;;;;;;14.43;6.47;;;8.50;99.90;;;;;;5005866;28;20053;-76
2022/05/15 02:35:07;;;;;;;14.07;6.32;;;8.60;99.90;;;;;;5004749;28;20415;-76
2022/05/15 02:37:33;;;;;;;17.45;7.72;;;8.20;99.90;;;;;;5007371;28;20453;-76
2022/05/15 02:39:59;;;;;;;27.23;8.27;;;8.10;99.90;;;;;;5005507;28;20084;-76
2022/05/15 02:42:26;;;;;;;21.98;8.68;;;8.40;99.90;;;;;;5006786;28;20455;-76
2022/05/15 02:44:52;;;;;;;18.17;8.07;;;8.50;99.90;;;;;;5005287;28;20061;-77
2022/05/15 02:47:17;;;;;;;12.13;6.00;;;8.40;99.90;;;;;;5007106;28;20053;-77
2022/05/15 02:52:27;;;;;;;18.50;6.32;;;8.10;99.90;;;;;;5006863;28;20054;-76
2022/05/15 02:54:53;;;;;;;13.07;5.45;;;8.20;99.90;;;;;;5006659;28;20100;-76
2022/05/15 02:57:19;;;;;;;12.40;5.93;;;8.00;99.90;;;;;;5005135;28;20405;-76
2022/05/15 02:59:44;;;;;;;8.73;6.25;;;7.90;99.90;;;;;;4989530;28;20053;-77
2022/05/15 03:02:10;;;;;;;10.70;5.28;;;8.00;99.90;;;;;;5005643;28;20133;-77
2022/05/15 03:04:36;;;;;;;12.75;5.57;;;8.10;99.90;;;;;;5004798;28;20663;-76
2022/05/15 03:07:05;;;;;;;8.65;4.25;;;8.00;99.90;;;;;;4988734;28;20033;-76
2022/05/15 03:09:31;;;;;;;11.43;5.38;;;7.80;99.90;;;;;;4988958;28;20049;-77
2022/05/15 03:11:57;;;;;;;12.05;4.55;;;7.80;99.90;;;;;;4989167;28;20046;-77
2022/05/15 03:14:22;;;;;;;14.43;4.75;;;7.70;99.90;;;;;;5006923;28;20408;-77
2022/05/15 03:16:48;;;;;;;26.02;7.53;;;7.80;99.90;;;;;;5004969;28;20437;-77
2022/05/15 03:19:13;;;;;;;17.65;7.07;;;7.90;99.90;;;;;;5005868;28;20637;-77
2022/05/15 03:21:39;;;;;;;20.73;9.07;;;7.90;99.90;;;;;;5006190;28;20037;-75
2022/05/15 03:24:11;;;;;;;21.48;6.18;;;8.00;99.90;;;;;;5004967;28;20054;-75
2022/05/15 03:26:40;;;;;;;13.05;6.20;;;8.00;99.90;;;;;;5006268;28;20042;-77
2022/05/15 03:29:07;;;;;;;20.55;7.47;;;7.90;99.90;;;;;;5006142;28;20068;-77
2022/05/15 03:31:35;;;;;;;20.95;6.68;;;7.90;99.90;;;;;;4989021;28;20425;-76
2022/05/15 03:34:02;;;;;;;24.38;8.45;;;7.90;99.90;;;;;;5003988;28;20100;-78
2022/05/15 03:36:28;;;;;;;21.35;7.40;;;8.00;99.90;;;;;;5006058;28;20081;-77
2022/05/15 03:38:54;;;;;;;18.70;5.43;;;8.00;99.90;;;;;;5004840;28;20144;-77
2022/05/15 03:41:19;;;;;;;20.88;7.72;;;7.90;99.90;;;;;;5005547;28;20505;-77
2022/05/15 03:43:45;;;;;;;24.65;8.18;;;8.00;99.90;;;;;;5005262;28;20132;-77
2022/05/15 03:46:11;;;;;;;24.20;7.25;;;8.00;99.90;;;;;;5005587;28;20060;-77
2022/05/15 03:48:37;;;;;;;20.30;6.75;;;8.00;99.90;;;;;;5006048;28;20081;-76
2022/05/15 03:51:03;;;;;;;25.50;8.68;;;8.00;99.90;;;;;;5003785;28;20496;-76
2022/05/15 03:53:29;;;;;;;19.42;6.72;;;8.20;99.90;;;;;;4988456;28;20565;-78
2022/05/15 03:55:58;;;;;;;20.20;7.95;;;8.10;99.90;;;;;;5005713;28;20050;-77
2022/05/15 03:58:28;;;;;;;16.52;6.30;;;8.10;99.90;;;;;;5005704;28;20436;-78
2022/05/15 04:00:54;;;;;;;29.67;7.85;;;8.10;99.90;;;;;;5004581;28;20049;-77
2022/05/15 04:03:20;;;;;;;27.23;7.60;;;8.10;99.90;;;;;;5005641;28;20042;-77
2022/05/15 04:05:46;;;;;;;20.17;6.78;;;8.20;99.90;;;;;;5005252;28;20038;-75
2022/05/15 04:08:11;;;;;;;16.85;8.13;;;8.20;99.90;;;;;;5004390;28;20053;-77
2022/05/15 04:10:37;;;;;;;17.50;6.97;;;8.20;99.90;;;;;;5004364;28;20065;-78
2022/05/15 04:13:03;;;;;;;15.90;5.75;;;8.10;99.90;;;;;;5005748;28;20463;-75
2022/05/15 04:15:29;;;;;;;10.93;5.43;;;8.10;99.90;;;;;;5004392;28;20045;-76
2022/05/15 04:17:54;;;;;;;17.35;5.45;;;8.40;99.90;;;;;;5005695;28;20049;-76
2022/05/15 04:20:25;;;;;;;19.65;7.70;;;8.50;99.90;;;;;;5003069;28;20125;-75
2022/05/15 04:22:51;;;;;;;16.48;6.20;;;8.40;99.90;;;;;;5004222;28;20129;-78
2022/05/15 04:25:17;;;;;;;21.65;6.93;;;8.40;99.90;;;;;;5006014;28;20978;-77
2022/05/15 04:27:43;;;;;;;21.50;8.07;;;8.40;99.90;;;;;;5006093;28;20129;-77
2022/05/15 04:30:12;;;;;;;15.90;7.43;;;8.40;99.90;;;;;;5005472;28;20113;-77
2022/05/15 04:32:37;;;;;;;28.02;8.75;;;8.50;99.90;;;;;;5004550;28;20053;-77
2022/05/15 04:35:04;;;;;;;19.90;7.47;;;8.70;99.90;;;;;;5004222;28;20125;-77
2022/05/15 04:37:29;;;;;;;24.13;8.25;;;9.30;99.90;;;;;;5003979;28;20068;-77
2022/05/15 04:39:55;;;;;;;17.98;7.07;;;9.40;99.90;;;;;;5005536;28;20034;-76
2022/05/15 04:42:21;;;;;;;24.25;8.57;;;9.60;99.90;;;;;;5005195;28;20050;-77
2022/05/15 04:44:46;;;;;;;17.17;6.90;;;9.40;99.90;;;;;;5008800;28;20057;-77
2022/05/15 04:47:13;;;;;;;28.02;8.80;;;9.20;99.90;;;;;;5009215;28;20050;-75
2022/05/15 04:49:38;;;;;;;21.85;8.02;;;9.20;99.90;;;;;;5007805;28;20546;-76
2022/05/15 04:52:04;;;;;;;25.10;8.63;;;9.20;99.90;;;;;;5008646;28;20157;-77
2022/05/15 04:54:30;;;;;;;30.30;10.95;;;9.20;99.90;;;;;;5009038;28;20057;-75
2022/05/15 04:56:55;;;;;;;30.52;9.70;;;9.30;99.90;;;;;;5008820;28;20057;-76
2022/05/15 04:59:22;;;;;;;28.27;9.93;;;9.40;99.90;;;;;;5008637;28;20049;-76
2022/05/15 05:01:47;;;;;;;35.65;10.73;;;9.40;99.90;;;;;;5008520;28;20072;-77
2022/05/15 05:04:13;;;;;;;26.55;10.68;;;9.50;99.90;;;;;;5006775;28;20042;-75
2022/05/15 05:06:39;;;;;;;28.23;8.93;;;9.60;99.90;;;;;;5007331;28;20116;-75
2022/05/15 05:09:04;;;;;;;23.38;9.13;;;9.60;99.90;;;;;;5008470;28;20038;-78
2022/05/15 05:11:30;;;;;;;30.23;9.90;;;9.60;99.90;;;;;;4974771;28;20137;-76
2022/05/15 05:13:55;;;;;;;25.00;8.25;;;9.80;99.90;;;;;;5008287;28;20077;-77
2022/05/15 05:16:21;;;;;;;34.00;9.63;;;9.80;99.90;;;;;;5006833;28;20133;-75
2022/05/15 05:18:48;;;;;;;37.28;10.50;;;9.80;99.90;;;;;;5006245;28;20042;-78
2022/05/15 05:21:14;;;;;;;26.80;9.75;;;9.90;99.90;;;;;;5008531;28;20041;-77
2022/05/15 05:23:40;;;;;;;35.15;11.25;;;10.00;99.90;;;;;;5008039;28;20045;-78
2022/05/15 05:26:05;;;;;;;28.15;10.23;;;10.10;99.90;;;;;;5006653;28;20050;-75
2022/05/15 05:28:31;;;;;;;27.30;11.00;;;10.10;99.90;;;;;;5007123;28;20042;-77
2022/05/15 05:30:58;;;;;;;23.17;7.80;;;10.10;99.90;;;;;;5007060;28;20042;-77
2022/05/15 05:33:25;;;;;;;40.67;12.48;;;10.20;99.90;;;;;;5007791;28;20049;-77
2022/05/15 05:35:51;;;;;;;27.17;10.73;;;10.20;99.90;;;;;;5006887;28;20096;-78
2022/05/15 05:38:17;;;;;;;23.00;9.02;;;10.30;99.90;;;;;;4990611;28;20050;-77
2022/05/15 05:40:43;;;;;;;29.90;9.02;;;10.50;99.90;;;;;;5008555;28;20050;-75
2022/05/15 05:43:08;;;;;;;29.23;8.93;;;10.50;99.90;;;;;;5006891;28;20046;-77
2022/05/15 05:45:35;;;;;;;31.95;10.98;;;10.60;99.90;;;;;;5006606;28;20527;-77
2022/05/15 05:48:00;;;;;;;28.33;9.63;;;10.70;99.90;;;;;;5008098;28;20086;-77
2022/05/15 05:50:27;;;;;;;33.10;10.43;;;10.90;99.90;;;;;;5005609;28;20073;-77
2022/05/15 05:52:54;;;;;;;33.22;10.45;;;10.90;99.90;;;;;;5006641;28;20073;-77
2022/05/15 05:55:23;;;;;;;30.60;10.60;;;11.10;99.90;;;;;;5005009;28;20472;-77
2022/05/15 05:57:49;;;;;;;26.25;9.48;;;11.30;99.90;;;;;;5006213;28;20042;-77
2022/05/15 06:00:19;;;;;;;29.63;9.75;;;11.20;99.90;;;;;;5006860;28;20045;-77
2022/05/15 06:02:45;;;;;;;32.15;11.00;;;11.30;99.90;;;;;;5006771;28;20042;-76
2022/05/15 06:05:11;;;;;;;36.33;11.85;;;11.40;99.90;;;;;;5004906;28;20405;-78
2022/05/15 06:07:37;;;;;;;34.67;11.90;;;11.40;99.90;;;;;;5006403;28;20103;-77
2022/05/15 06:10:07;;;;;;;29.98;8.80;;;11.60;99.90;;;;;;5006166;28;20441;-77
2022/05/15 06:12:33;;;;;;;34.45;12.30;;;11.60;99.90;;;;;;5007983;28;20054;-77
2022/05/15 06:14:58;;;;;;;35.13;11.50;;;11.70;99.90;;;;;;5007001;28;20052;-75
2022/05/15 06:17:27;;;;;;;34.30;9.48;;;11.80;99.90;;;;;;5006240;28;20129;-76
2022/05/15 06:19:54;;;;;;;28.98;9.98;;;11.90;99.90;;;;;;5005094;28;20484;-76
2022/05/15 06:22:21;;;;;;;36.13;9.13;;;12.10;99.90;;;;;;5006796;28;20145;-76
2022/05/15 06:24:47;;;;;;;30.25;8.07;;;12.00;99.90;;;;;;5006983;28;20050;-76
2022/05/15 06:27:13;;;;;;;26.52;8.70;;;12.10;99.90;;;;;;5006213;28;20072;-75
2022/05/15 06:29:40;;;;;;;28.67;9.13;;;12.30;99.90;;;;;;5005912;28;20096;-76
2022/05/15 06:32:07;;;;;;;27.88;9.10;;;12.30;99.90;;;;;;5006896;28;20052;-76
2022/05/15 06:34:33;;;;;;;26.23;7.70;;;12.40;99.90;;;;;;5006376;28;20049;-76
2022/05/15 06:36:58;;;;;;;25.58;7.75;;;12.50;99.90;;;;;;5007489;28;20045;-76
2022/05/15 06:39:24;;;;;;;26.70;6.53;;;12.60;99.90;;;;;;5006583;28;20460;-77
2022/05/15 06:41:51;;;;;;;27.52;8.60;;;12.70;99.90;;;;;;5005523;28;20481;-77
2022/05/15 06:44:18;;;;;;;28.73;7.97;;;12.90;99.90;;;;;;5007261;28;20038;-76
2022/05/15 06:46:44;;;;;;;23.10;7.45;;;13.00;99.90;;;;;;5005425;28;20065;-77
2022/05/15 06:49:10;;;;;;;25.48;8.65;;;13.00;99.90;;;;;;5004120;28;20046;-77
2022/05/15 06:51:35;;;;;;;31.27;7.75;;;13.20;99.90;;;;;;5006985;28;20099;-77
2022/05/15 06:54:01;;;;;;;18.17;5.35;;;13.20;99.90;;;;;;5005561;28;20057;-77
2022/05/15 06:59:11;;;;;;;24.20;7.25;;;13.50;99.90;;;;;;5006193;28;20046;-76
2022/05/15 07:01:36;;;;;;;21.02;7.00;;;13.70;99.90;;;;;;5006715;28;20412;-77
2022/05/15 07:04:02;;;;;;;20.90;5.20;;;14.20;99.90;;;;;;4987539;28;20042;-76
2022/05/15 07:06:28;;;;;;;22.98;5.65;;;15.80;99.90;;;;;;4988620;28;20117;-77
2022/05/15 07:08:54;;;;;;;20.00;6.20;;;16.60;99.90;;;;;;5006348;28;20042;-78
2022/05/15 07:11:20;;;;;;;21.88;5.88;;;17.00;99.90;;;;;;5004772;28;20046;-78
2022/05/15 07:13:46;;;;;;;20.30;4.75;;;17.20;99.90;;;;;;5005502;28;20030;-78
2022/05/15 07:16:11;;;;;;;12.98;5.13;;;17.10;99.90;;;;;;4988838;28;20045;-76
2022/05/15 07:18:38;;;;;;;14.73;4.32;;;17.10;99.90;;;;;;5005347;28;20045;-76
2022/05/15 07:21:04;;;;;;;18.75;5.88;;;17.80;99.90;;;;;;5006321;28;20061;-76
2022/05/15 07:23:30;;;;;;;25.02;5.85;;;18.00;99.90;;;;;;5005048;28;20042;-76
2022/05/15 07:25:56;;;;;;;18.83;5.75;;;18.00;99.90;;;;;;5004876;28;20077;-76
2022/05/15 07:28:22;;;;;;;15.55;4.47;;;17.40;99.90;;;;;;5004614;28;20048;-76
2022/05/15 07:30:50;;;;;;;13.75;5.72;;;17.50;99.90;;;;;;4988518;28;20145;-76
2022/05/15 07:33:23;;;;;;;14.90;5.00;;;17.50;99.90;;;;;;5005660;28;20478;-76
2022/05/15 07:35:49;;;;;;;15.63;5.30;;;16.40;99.90;;;;;;5004968;28;20042;-76
2022/05/15 07:38:16;;;;;;;19.55;6.78;;;16.40;99.90;;;;;;5006175;28;20042;-76
2022/05/15 07:40:42;;;;;;;26.42;6.43;;;16.10;99.90;;;;;;5005020;28;20404;-76
2022/05/15 07:43:09;;;;;;;13.93;5.20;;;16.00;99.90;;;;;;5004538;28;20053;-76
2022/05/15 07:45:35;;;;;;;16.92;5.35;;;15.80;99.90;;;;;;5004700;28;20188;-76
2022/05/15 07:48:01;;;;;;;22.45;5.35;;;16.10;99.90;;;;;;5004542;28;20146;-76
2022/05/15 07:50:27;;;;;;;18.77;4.57;;;16.00;99.90;;;;;;5003635;28;20049;-77
2022/05/15 07:52:53;;;;;;;18.08;4.80;;;16.20;99.90;;;;;;5004679;28;20088;-77
2022/05/15 07:55:19;;;;;;;19.33;4.50;;;16.20;99.90;;;;;;5005464;28;20077;-78
2022/05/15 07:57:44;;;;;;;20.48;4.78;;;16.10;99.90;;;;;;5005083;28;20050;-77
2022/05/15 08:00:14;;;;;;;17.83;4.38;;;16.60;99.90;;;;;;5005329;28;20122;-77
2022/05/15 08:02:43;;;;;;;17.77;4.32;;;16.50;99.90;;;;;;5004640;28;20887;-77
2022/05/15 08:08:01;;;;;;;19.48;5.53;;;16.60;99.90;;;;;;5004298;28;20042;-77
2022/05/15 08:10:34;;;;;;;18.48;4.93;;;16.80;99.90;;;;;;5005936;28;20057;-78
2022/05/15 08:13:02;;;;;;;17.23;5.05;;;16.80;99.90;;;;;;4987933;28;20056;-78
2022/05/15 08:15:28;;;;;;;21.63;4.65;;;16.90;99.90;;;;;;5004355;28;20092;-78
2022/05/15 08:17:54;;;;;;;15.00;4.65;;;17.20;99.90;;;;;;5006081;28;20073;-78
2022/05/15 08:25:49;;;;;;;13.90;3.63;;;17.10;99.90;;;;;;4994322;28;20050;-77
2022/05/15 08:28:16;;;;;;;17.85;4.72;;;17.20;99.90;;;;;;5009741;28;20069;-77
2022/05/15 08:30:42;;;;;;;18.00;4.90;;;17.30;99.90;;;;;;5008145;28;20125;-77
2022/05/15 08:33:10;;;;;;;13.55;4.15;;;17.60;99.90;;;;;;5007047;28;20045;-78
2022/05/15 08:35:36;;;;;;;16.75;4.75;;;17.70;99.90;;;;;;5008440;28;20050;-76
2022/05/15 08:38:02;;;;;;;16.38;3.33;;;17.60;99.90;;;;;;5008011;28;20130;-75
2022/05/15 08:40:47;;;;;;;25.80;7.03;;;17.60;99.90;;;;;;5007595;28;20053;-76
2022/05/15 08:43:13;;;;;;;24.42;5.80;;;17.70;99.90;;;;;;5007795;28;20133;-76
2022/05/15 08:45:45;;;;;;;16.02;5.10;;;17.80;99.90;;;;;;5008972;28;20129;-76
2022/05/15 08:48:13;;;;;;;19.25;4.50;;;17.70;99.90;;;;;;5006753;28;20103;-77
2022/05/15 08:50:49;;;;;;;13.95;4.20;;;17.70;99.90;;;;;;5007234;28;20038;-78
2022/05/15 08:53:23;;;;;;;18.25;4.82;;;17.60;99.90;;;;;;5009450;28;20060;-77
2022/05/15 08:55:51;;;;;;;20.73;5.68;;;17.10;99.90;;;;;;5008737;28;20125;-77
2022/05/15 08:58:29;;;;;;;20.90;5.50;;;17.10;99.90;;;;;;5008536;28;20038;-78
2022/05/15 09:00:55;;;;;;;16.05;3.65;;;17.50;99.90;;;;;;5008905;28;20942;-77
2022/05/15 09:03:27;;;;;;;18.55;4.97;;;17.60;99.90;;;;;;5007636;28;20136;-77
2022/05/15 09:05:59;;;;;;;18.58;4.93;;;17.90;99.90;;;;;;5007342;28;20052;-77
2022/05/15 09:08:54;;;;;;;25.45;6.00;;;18.00;99.90;;;;;;5006934;28;20093;-77
2022/05/15 09:11:44;;;;;;;19.80;5.00;;;17.60;99.90;;;;;;4995274;28;20061;-77
2022/05/15 09:14:09;;;;;;;21.37;4.53;;;18.10;99.90;;;;;;5007261;28;20100;-77
2022/05/15 09:16:36;;;;;;;21.38;5.75;;;18.30;99.90;;;;;;5008443;28;20134;-78
2022/05/15 09:19:06;;;;;;;25.02;6.05;;;18.30;99.90;;;;;;5007609;28;20058;-78
2022/05/15 09:21:32;;;;;;;19.33;5.87;;;18.60;99.90;;;;;;5007311;28;20050;-76
2022/05/15 09:24:06;;;;;;;13.55;5.15;;;18.60;99.90;;;;;;5007049;28;20289;-78
2022/05/15 09:26:46;;;;;;;16.60;5.13;;;18.70;99.90;;;;;;5008237;28;20081;-78
2022/05/15 09:29:17;;;;;;;;;;;18.70;99.90;;;;;;5007763;28;20129;-78
2022/05/15 09:31:44;;;;;;;16.83;4.80;;;18.90;99.90;;;;;;5008705;28;20024;-77
2022/05/15 09:34:25;;;;;;;22.70;6.65;;;18.60;99.90;;;;;;5005474;28;20061;-78
2022/05/15 09:38:26;;;;;;;17.23;4.22;;;18.70;99.90;;;;;;5008106;28;20042;-77
2022/05/15 09:39:46;;;;;;;20.27;6.60;;;18.80;99.90;;;;;;5007830;28;20057;-77
2022/05/15 09:45:18;;;;;;;14.75;3.90;;;18.80;99.90;;;;;;5007115;28;20054;-78
2022/05/15 09:47:59;;;;;;;17.15;4.75;;;18.90;99.90;;;;;;5008158;28;20081;-79
2022/05/15 09:50:46;;;;;;;17.80;5.07;;;18.90;99.90;;;;;;5006463;28;20038;-76
2022/05/15 09:53:30;;;;;;;17.33;4.22;;;19.00;99.90;;;;;;5008351;28;20129;-76
2022/05/15 09:56:10;;;;;;;17.55;5.55;;;18.80;99.90;;;;;;5007812;28;20368;-77
2022/05/15 09:58:43;;;;;;;18.98;5.85;;;19.00;99.90;;;;;;5007983;28;20857;-77
2022/05/15 10:01:26;;;;;;;25.13;6.35;;;19.20;99.90;;;;;;5007651;28;20045;-77
2022/05/15 10:03:55;;;;;;;27.60;8.20;;;18.90;99.90;;;;;;5006698;28;20057;-78
2022/05/15 10:06:23;;;;;;;18.30;5.47;;;19.10;99.90;;;;;;5007815;28;20042;-78
2022/05/15 10:09:26;;;;;;;23.02;6.25;;;18.90;99.90;;;;;;5007868;28;20081;-78
2022/05/15 10:12:20;;;;;;;13.38;4.32;;;19.00;99.90;;;;;;4997980;28;20062;-77
2022/05/15 10:14:56;;;;;;;12.80;4.57;;;19.30;99.90;;;;;;5006902;28;20054;-77
2022/05/15 10:17:24;;;;;;;21.48;4.90;;;19.40;99.90;;;;;;5007411;28;20057;-77
2022/05/15 10:19:55;;;;;;;23.25;7.65;;;19.10;99.90;;;;;;5006701;28;20069;-77
2022/05/15 10:22:36;;;;;;;16.40;4.65;;;19.10;99.90;;;;;;5006409;28;20145;-79
2022/05/15 10:25:25;;;;;;;21.52;6.30;;;19.20;99.90;;;;;;5009344;28;20049;-79
2022/05/15 10:28:01;;;;;;;20.05;5.65;;;19.50;99.90;;;;;;5008503;28;20049;-78
2022/05/15 10:30:33;;;;;;;20.65;5.43;;;19.50;99.90;;;;;;5006589;28;20133;-79
2022/05/15 10:33:05;;;;;;;20.58;5.18;;;19.70;99.90;;;;;;4990318;28;20050;-79
2022/05/15 10:35:45;;;;;;;17.25;4.53;;;19.60;99.90;;;;;;4990207;28;20054;-77
2022/05/15 10:38:40;;;;;;;13.00;4.07;;;19.80;99.90;;;;;;5008516;28;20057;-78
2022/05/15 10:41:19;;;;;;;14.15;3.70;;;19.80;99.90;;;;;;5006486;28;20488;-78
2022/05/15 10:43:58;;;;;;;12.32;3.90;;;20.20;99.90;;;;;;5006881;28;20377;-78
2022/05/15 10:46:49;;;;;;;15.90;4.45;;;20.40;99.90;;;;;;5006606;28;20060;-78
2022/05/15 10:49:35;;;;;;;15.80;5.85;;;20.00;99.90;;;;;;5005306;28;20089;-78
2022/05/15 10:52:01;;;;;;;17.52;4.53;;;20.00;99.90;;;;;;5007524;28;20183;-78
2022/05/15 10:58:06;;;;;;;10.13;3.28;;;20.20;99.90;;;;;;5007312;28;20050;-77
2022/05/15 11:01:01;;;;;;;22.92;4.32;;;20.10;99.90;;;;;;5006501;28;20042;-78
2022/05/15 11:03:34;;;;;;;17.75;3.90;;;19.90;99.90;;;;;;5005309;28;20112;-79
2022/05/15 11:06:27;;;;;;;16.13;4.53;;;20.00;99.90;;;;;;5006675;28;20042;-78
2022/05/15 11:09:01;;;;;;;21.55;6.00;;;19.90;99.90;;;;;;5006493;28;20124;-78
2022/05/15 11:12:08;;;;;;;12.23;3.15;;;20.50;99.90;;;;;;4988884;28;20118;-79
2022/05/15 11:15:01;;;;;;;14.65;3.65;;;20.20;99.90;;;;;;5006865;28;20050;-78
2022/05/15 11:17:48;;;;;;;18.17;5.82;;;20.70;99.90;;;;;;5006185;28;20053;-78
2022/05/15 11:20:19;;;;;;;13.48;3.75;;;20.70;99.90;;;;;;5006871;28;20196;-77
2022/05/15 11:22:48;;;;;;;16.38;4.03;;;20.40;99.90;;;;;;5006932;28;20546;-78
2022/05/15 11:25:35;;;;;;;14.40;4.10;;;20.30;99.90;;;;;;5006532;28;20432;-78
2022/05/15 11:28:14;;;;;;;17.83;4.72;;;20.50;99.90;;;;;;5006361;28;20056;-78
2022/05/15 11:30:43;;;;;;;15.15;4.80;;;20.40;99.90;;;;;;5006081;28;20081;-78
2022/05/15 11:33:31;;;;;;;18.70;5.78;;;20.50;99.90;;;;;;5005005;28;20057;-78
2022/05/15 11:36:14;;;;;;;20.27;4.90;;;20.50;99.90;;;;;;4991205;28;20069;-78
2022/05/15 11:38:55;;;;;;;12.02;3.05;;;20.60;99.90;;;;;;5004696;28;20586;-80
2022/05/15 11:41:38;;;;;;;22.17;5.15;;;20.30;99.90;;;;;;5005854;28;20037;-78
2022/05/15 11:44:10;;;;;;;14.10;3.53;;;20.20;99.90;;;;;;5004596;28;20093;-79
2022/05/15 11:46:45;;;;;;;16.60;4.30;;;20.50;99.90;;;;;;5006050;28;20050;-78
2022/05/15 11:49:13;;;;;;;15.68;4.10;;;20.30;99.90;;;;;;5005111;28;20054;-77
2022/05/15 11:51:39;;;;;;;15.00;5.00;;;20.70;99.90;;;;;;5005858;28;20080;-78
2022/05/15 11:54:08;;;;;;;12.77;3.60;;;20.70;99.90;;;;;;5005276;28;20133;-78
2022/05/15 11:56:41;;;;;;;15.27;5.22;;;20.70;99.90;;;;;;5006501;28;20129;-79
2022/05/15 11:59:17;;;;;;;15.38;4.45;;;20.50;99.90;;;;;;4988742;28;20107;-79
2022/05/15 12:01:46;;;;;;;15.82;4.57;;;20.70;99.90;;;;;;5005259;28;20069;-79
2022/05/15 12:04:20;;;;;;;13.43;3.83;;;21.10;99.90;;;;;;5005424;28;20173;-78
2022/05/15 12:06:57;;;;;;;12.60;3.53;;;20.90;99.90;;;;;;5006922;28;20034;-78
2022/05/15 12:09:39;;;;;;;24.13;6.00;;;21.00;99.90;;;;;;5006520;28;20053;-78
2022/05/15 12:12:52;;;;;;;16.15;5.70;;;21.10;99.90;;;;;;5005959;28;20041;-78
2022/05/15 12:15:19;;;;;;;13.38;4.28;;;21.40;99.90;;;;;;4978574;28;20100;-77
2022/05/15 12:17:51;;;;;;;15.75;5.00;;;21.10;99.90;;;;;;5003630;28;20050;-77
2022/05/15 12:20:28;;;;;;;8.63;2.83;;;21.20;99.90;;;;;;5006176;28;20049;-78
2022/05/15 12:22:59;;;;;;;19.02;5.15;;;21.20;99.90;;;;;;5006021;28;20112;-79
2022/05/15 12:25:30;;;;;;;12.35;3.70;;;21.10;99.90;;;;;;5005727;28;20080;-77
2022/05/15 12:31:09;;;;;;;19.60;6.38;;;21.30;99.90;;;;;;5005456;28;20066;-78
2022/05/15 12:33:40;;;;;;;12.65;3.95;;;21.10;99.90;;;;;;5004737;28;20516;-79
2022/05/15 12:36:12;;;;;;;12.27;4.57;;;21.20;99.90;;;;;;5005443;28;20120;-80
2022/05/15 12:38:45;;;;;;;12.27;3.80;;;21.40;99.90;;;;;;5005871;28;20559;-78
2022/05/15 12:41:20;;;;;;;18.08;4.45;;;21.50;99.90;;;;;;5005443;28;20088;-78
2022/05/15 12:43:50;;;;;;;13.63;4.03;;;21.40;99.90;;;;;;5005926;28;20056;-79
2022/05/15 12:46:23;;;;;;;14.07;3.92;;;21.40;99.90;;;;;;5004637;28;20133;-79
2022/05/15 12:48:49;;;;;;;16.55;5.03;;;21.50;99.90;;;;;;5004583;28;20116;-80
2022/05/15 12:51:23;;;;;;;11.38;4.25;;;21.30;99.90;;;;;;5004369;28;20488;-77
2022/05/15 12:53:48;;;;;;;15.25;4.45;;;21.20;99.90;;;;;;5004005;28;20088;-78
2022/05/15 12:56:35;;;;;;;19.38;3.83;;;21.40;99.90;;;;;;5005951;28;20069;-78
2022/05/15 12:59:18;;;;;;;10.98;4.70;;;21.10;99.90;;;;;;5004183;28;20052;-77
2022/05/15 13:01:45;;;;;;;12.48;4.00;;;21.10;99.90;;;;;;5005522;28;20080;-79
2022/05/15 13:04:20;;;;;;;12.55;3.35;;;21.30;99.90;;;;;;5005411;28;20046;-77
2022/05/15 13:06:53;;;;;;;15.65;4.72;;;21.20;99.90;;;;;;5009360;28;20029;-81
2022/05/15 13:09:27;;;;;;;17.42;4.55;;;21.40;99.90;;;;;;5008699;28;20038;-77
2022/05/15 13:11:57;;;;;;;11.90;3.55;;;21.30;99.90;;;;;;5008947;28;20124;-78
2022/05/15 13:14:37;;;;;;;14.98;4.60;;;21.30;99.90;;;;;;5007334;28;20054;-77
2022/05/15 13:17:04;;;;;;;13.60;4.28;;;21.50;99.90;;;;;;5008264;28;20045;-76
2022/05/15 13:19:43;;;;;;;15.70;3.75;;;21.70;99.90;;;;;;5006584;28;20045;-79